Time;durP1;ratioP1;P1;durP2;ratioP2;P2;SDS_P1;SDS_P2;PMS_P1;PMS_P2;Temp;Humidity;BMP_temperature;BMP_pressure;BME280_temperature;BME280_humidity;BME280_pressure;Samples;Min_cycle;Max_cycle;Signal;HPM_P1;HPM_P2
2023/09/25 00:00:08;;;;;;;6.18;1.30;;;;;;;;;;4981561;28;20072;-73
2023/09/25 00:02:34;;;;;;;7.38;1.67;;;;;;;;;;4968624;28;20108;-73
2023/09/25 00:05:00;;;;;;;6.05;1.30;;;;;;;;;;4975442;28;20068;-73
2023/09/25 00:07:26;;;;;;;5.80;1.38;;;;;;;;;;4970545;28;20033;-73
2023/09/25 00:09:53;;;;;;;4.65;1.15;;;;;;;;;;4973043;28;20041;-74
2023/09/25 00:12:19;;;;;;;4.47;1.30;;;;;;;;;;4971878;28;21392;-74
2023/09/25 00:14:45;;;;;;;6.72;1.45;;;;;;;;;;4970117;28;20105;-74
2023/09/25 00:17:11;;;;;;;4.47;1.50;;;;;;;;;;4969728;28;20091;-74
2023/09/25 00:19:37;;;;;;;7.60;2.35;;;;;;;;;;4971942;28;20061;-74
2023/09/25 00:22:04;;;;;;;5.45;1.73;;;;;;;;;;4971769;28;20030;-73
2023/09/25 00:24:30;;;;;;;6.45;1.50;;;;;;;;;;4971631;28;20037;-73
2023/09/25 00:26:56;;;;;;;6.43;1.42;;;;;;;;;;4970559;28;20310;-74
2023/09/25 00:29:22;;;;;;;6.13;1.60;;;;;;;;;;4971225;28;20205;-73
2023/09/25 00:31:48;;;;;;;6.43;1.40;;;;;;;;;;4970916;28;20405;-73
2023/09/25 00:34:15;;;;;;;9.25;1.67;;;;;;;;;;4972303;28;20448;-74
2023/09/25 00:36:43;;;;;;;5.57;1.45;;;;;;;;;;4973663;28;20040;-74
2023/09/25 00:39:10;;;;;;;5.18;1.35;;;;;;;;;;4965973;28;20045;-73
2023/09/25 00:41:36;;;;;;;5.72;1.50;;;;;;;;;;4967338;28;20773;-73
2023/09/25 00:44:02;;;;;;;4.93;1.38;;;;;;;;;;4981126;28;20044;-73
2023/09/25 00:46:28;;;;;;;5.72;1.30;;;;;;;;;;4976338;28;20025;-73
2023/09/25 00:48:54;;;;;;;4.72;1.42;;;;;;;;;;4968745;28;20604;-74
2023/09/25 00:51:21;;;;;;;5.32;1.30;;;;;;;;;;4970875;28;20115;-74
2023/09/25 00:53:48;;;;;;;5.32;1.20;;;;;;;;;;4961424;28;20471;-73
2023/09/25 00:56:15;;;;;;;5.32;1.20;;;;;;;;;;4964942;28;20041;-73
2023/09/25 00:58:41;;;;;;;4.35;1.20;;;;;;;;;;4976971;28;20439;-73
2023/09/25 01:01:11;;;;;;;5.50;1.25;;;;;;;;;;4977268;28;20132;-73
2023/09/25 01:03:37;;;;;;;5.97;1.27;;;;;;;;;;4975277;28;20081;-73
2023/09/25 01:06:05;;;;;;;3.95;1.20;;;;;;;;;;4977322;28;20830;-73
2023/09/25 01:08:31;;;;;;;4.13;1.00;;;;;;;;;;4975481;28;20565;-73
2023/09/25 01:10:59;;;;;;;3.70;1.23;;;;;;;;;;4980427;28;20037;-73
2023/09/25 01:13:25;;;;;;;4.75;1.30;;;;;;;;;;4976843;28;20129;-73
2023/09/25 01:15:51;;;;;;;4.90;1.20;;;;;;;;;;4970098;28;20115;-74
2023/09/25 01:18:17;;;;;;;5.30;1.30;;;;;;;;;;4945523;28;20105;-75
2023/09/25 01:20:43;;;;;;;5.45;1.45;;;;;;;;;;4944826;28;20497;-74
2023/09/25 01:23:09;;;;;;;5.28;1.40;;;;;;;;;;4945085;28;20037;-73
2023/09/25 01:25:36;;;;;;;6.55;1.40;;;;;;;;;;4955635;28;20026;-73
2023/09/25 01:28:03;;;;;;;3.63;1.10;;;;;;;;;;4946638;28;20030;-73
2023/09/25 01:30:29;;;;;;;6.75;1.45;;;;;;;;;;4938244;28;20496;-73
2023/09/25 01:32:56;;;;;;;4.22;1.20;;;;;;;;;;4944750;28;20471;-73
2023/09/25 01:35:26;;;;;;;3.90;1.20;;;;;;;;;;4943617;28;20064;-73
2023/09/25 01:38:00;;;;;;;5.00;1.15;;;;;;;;;;4943443;28;20049;-75
2023/09/25 01:40:27;;;;;;;5.97;1.20;;;;;;;;;;4946029;28;20472;-73
2023/09/25 01:42:53;;;;;;;5.40;1.42;;;;;;;;;;4947298;28;20046;-72
2023/09/25 01:45:19;;;;;;;5.55;1.20;;;;;;;;;;4944546;28;20755;-73
2023/09/25 01:47:50;;;;;;;7.25;1.30;;;;;;;;;;4943228;28;20681;-75
2023/09/25 01:50:17;;;;;;;7.53;2.50;;;;;;;;;;4945922;28;20034;-75
2023/09/25 01:52:44;;;;;;;10.68;2.72;;;;;;;;;;4945511;28;20491;-73
2023/09/25 01:55:10;;;;;;;8.02;2.00;;;;;;;;;;4976749;28;20753;-73
2023/09/25 01:57:36;;;;;;;5.25;1.45;;;;;;;;;;4974304;28;20597;-74
2023/09/25 02:00:07;;;;;;;5.93;1.30;;;;;;;;;;4979398;28;20125;-74
2023/09/25 02:02:34;;;;;;;5.50;1.25;;;;;;;;;;4973847;28;20444;-74
2023/09/25 02:05:00;;;;;;;3.90;0.95;;;;;;;;;;4978319;28;20267;-74
2023/09/25 02:07:26;;;;;;;3.97;1.15;;;;;;;;;;4977526;28;20601;-74
2023/09/25 02:09:52;;;;;;;5.90;1.45;;;;;;;;;;4976952;28;20615;-74
2023/09/25 02:12:18;;;;;;;5.63;1.20;;;;;;;;;;4973117;28;20076;-74
2023/09/25 02:14:45;;;;;;;3.28;1.10;;;;;;;;;;4976437;28;20556;-74
2023/09/25 02:17:11;;;;;;;4.78;1.30;;;;;;;;;;4976102;28;20027;-75
2023/09/25 02:19:37;;;;;;;7.07;1.45;;;;;;;;;;4974118;28;20374;-74
2023/09/25 02:22:06;;;;;;;4.10;1.08;;;;;;;;;;4976318;28;20358;-75
2023/09/25 02:24:34;;;;;;;4.25;1.20;;;;;;;;;;4995036;28;20807;-74
2023/09/25 02:27:00;;;;;;;5.40;1.40;;;;;;;;;;4976799;28;20027;-74
2023/09/25 02:29:26;;;;;;;4.65;1.20;;;;;;;;;;4973494;28;20037;-72
2023/09/25 02:31:53;;;;;;;4.10;1.30;;;;;;;;;;4980370;28;20076;-74
2023/09/25 02:34:19;;;;;;;4.90;1.50;;;;;;;;;;4977778;28;20133;-73
2023/09/25 02:36:45;;;;;;;6.15;1.50;;;;;;;;;;4975737;28;20049;-75
2023/09/25 02:39:13;;;;;;;5.20;1.70;;;;;;;;;;4980195;28;20025;-75
2023/09/25 02:41:40;;;;;;;5.15;1.33;;;;;;;;;;4978239;28;20070;-73
2023/09/25 02:44:06;;;;;;;4.68;1.30;;;;;;;;;;4978370;28;20052;-73
2023/09/25 02:46:32;;;;;;;5.55;1.17;;;;;;;;;;4973574;28;20774;-73
2023/09/25 02:48:58;;;;;;;3.97;0.98;;;;;;;;;;4978476;28;20041;-73
2023/09/25 02:51:25;;;;;;;4.80;1.30;;;;;;;;;;4973953;28;20109;-73
2023/09/25 02:53:53;;;;;;;4.45;1.10;;;;;;;;;;4974182;28;20323;-74
2023/09/25 02:56:20;;;;;;;5.47;1.25;;;;;;;;;;4979333;28;20467;-74
2023/09/25 02:58:46;;;;;;;5.50;1.23;;;;;;;;;;4975800;28;23187;-74
2023/09/25 03:01:12;;;;;;;4.30;1.33;;;;;;;;;;4976838;28;20149;-74
2023/09/25 03:03:40;;;;;;;5.32;1.40;;;;;;;;;;4978080;28;20061;-74
2023/09/25 03:06:06;;;;;;;6.68;1.20;;;;;;;;;;4979067;28;20036;-74
2023/09/25 03:08:32;;;;;;;4.60;1.33;;;;;;;;;;4971951;28;20029;-74
2023/09/25 03:10:58;;;;;;;4.13;1.00;;;;;;;;;;4975687;28;20214;-73
2023/09/25 03:13:25;;;;;;;6.10;1.42;;;;;;;;;;4978351;28;20187;-73
2023/09/25 03:15:51;;;;;;;3.70;1.00;;;;;;;;;;4972880;28;20495;-74
2023/09/25 03:18:17;;;;;;;4.43;1.20;;;;;;;;;;4975334;28;20663;-74
2023/09/25 03:20:43;;;;;;;4.15;1.00;;;;;;;;;;4975173;28;20034;-74
2023/09/25 03:23:09;;;;;;;5.38;1.20;;;;;;;;;;4973681;28;20050;-74
2023/09/25 03:25:36;;;;;;;5.57;1.10;;;;;;;;;;4967967;28;20471;-74
2023/09/25 03:28:05;;;;;;;4.55;1.23;;;;;;;;;;4977399;28;20475;-74
2023/09/25 03:30:31;;;;;;;4.68;1.23;;;;;;;;;;4972631;28;20080;-73
2023/09/25 03:32:58;;;;;;;5.07;1.23;;;;;;;;;;4977300;28;20033;-76
2023/09/25 03:35:24;;;;;;;4.47;1.20;;;;;;;;;;4976882;28;20496;-74
2023/09/25 03:37:50;;;;;;;6.28;1.55;;;;;;;;;;4972722;28;20516;-74
2023/09/25 03:40:16;;;;;;;5.90;1.65;;;;;;;;;;4973894;28;20033;-74
2023/09/25 03:42:43;;;;;;;6.68;1.75;;;;;;;;;;4973479;28;20152;-74
2023/09/25 03:45:09;;;;;;;4.43;1.30;;;;;;;;;;4976030;28;20046;-74
2023/09/25 03:47:36;;;;;;;6.20;1.30;;;;;;;;;;4973803;28;20472;-74
2023/09/25 03:50:03;;;;;;;5.88;1.40;;;;;;;;;;4972923;28;20022;-74
2023/09/25 03:52:29;;;;;;;5.13;1.20;;;;;;;;;;4975379;28;20030;-74
2023/09/25 03:54:55;;;;;;;4.07;1.10;;;;;;;;;;4977039;28;20030;-74
2023/09/25 03:57:21;;;;;;;5.40;1.40;;;;;;;;;;4988218;28;20030;-74
2023/09/25 03:59:47;;;;;;;3.88;1.00;;;;;;;;;;4973171;28;20239;-74
2023/09/25 04:02:14;;;;;;;4.45;1.10;;;;;;;;;;4979454;28;20030;-74
2023/09/25 04:04:40;;;;;;;4.90;1.25;;;;;;;;;;4975551;28;20464;-74
2023/09/25 04:07:06;;;;;;;5.93;1.40;;;;;;;;;;4974638;28;20161;-74
2023/09/25 04:09:32;;;;;;;7.53;1.45;;;;;;;;;;4978317;28;20033;-75
2023/09/25 04:11:59;;;;;;;4.85;1.30;;;;;;;;;;4980886;28;20392;-74
2023/09/25 04:14:27;;;;;;;5.72;1.30;;;;;;;;;;4976021;28;20582;-74
2023/09/25 04:16:54;;;;;;;4.60;1.40;;;;;;;;;;4978817;28;20029;-75
2023/09/25 04:19:21;;;;;;;5.25;1.30;;;;;;;;;;4978404;28;20116;-74
2023/09/25 04:21:47;;;;;;;5.85;1.48;;;;;;;;;;4974793;28;20066;-74
2023/09/25 04:24:14;;;;;;;4.82;1.20;;;;;;;;;;4982013;28;20030;-74
2023/09/25 04:26:40;;;;;;;5.35;1.15;;;;;;;;;;4977585;28;20038;-74
2023/09/25 04:29:14;;;;;;;5.93;1.45;;;;;;;;;;4980831;28;20073;-75
2023/09/25 04:31:40;;;;;;;4.60;1.20;;;;;;;;;;4979157;28;20034;-74
2023/09/25 04:34:10;;;;;;;4.28;1.23;;;;;;;;;;4978259;28;20551;-74
2023/09/25 04:36:37;;;;;;;4.25;1.20;;;;;;;;;;4975651;28;20763;-74
2023/09/25 04:39:04;;;;;;;5.78;1.35;;;;;;;;;;4978353;28;20475;-74
2023/09/25 04:41:30;;;;;;;5.47;1.30;;;;;;;;;;4980112;28;20065;-74
2023/09/25 04:43:56;;;;;;;4.57;1.17;;;;;;;;;;4981409;28;20688;-74
2023/09/25 04:46:22;;;;;;;10.75;1.52;;;;;;;;;;4978773;28;20283;-74
2023/09/25 04:48:50;;;;;;;5.53;1.40;;;;;;;;;;4975848;28;20328;-73
2023/09/25 04:51:17;;;;;;;5.57;1.15;;;;;;;;;;4980012;28;20248;-74
2023/09/25 04:53:43;;;;;;;6.10;1.42;;;;;;;;;;4979257;28;20373;-74
2023/09/25 04:56:10;;;;;;;6.07;1.45;;;;;;;;;;4977564;28;20100;-74
2023/09/25 04:58:36;;;;;;;5.18;1.17;;;;;;;;;;4975316;28;20057;-74
2023/09/25 05:01:02;;;;;;;5.30;1.40;;;;;;;;;;4983307;28;20033;-74
2023/09/25 05:03:28;;;;;;;5.72;1.60;;;;;;;;;;4979202;28;20048;-73
2023/09/25 05:05:55;;;;;;;4.28;1.27;;;;;;;;;;4981980;28;20499;-73
2023/09/25 05:08:21;;;;;;;5.25;1.23;;;;;;;;;;4978547;28;20081;-75
2023/09/25 05:10:49;;;;;;;5.63;1.30;;;;;;;;;;4978348;28;20901;-75
2023/09/25 05:13:15;;;;;;;7.22;1.27;;;;;;;;;;4977920;28;20033;-75
2023/09/25 05:15:41;;;;;;;8.70;1.45;;;;;;;;;;4975282;28;20224;-74
2023/09/25 05:18:07;;;;;;;6.72;1.35;;;;;;;;;;4976359;28;20033;-74
2023/09/25 05:20:34;;;;;;;5.15;1.42;;;;;;;;;;4975995;28;20068;-74
2023/09/25 05:23:00;;;;;;;6.75;1.50;;;;;;;;;;4977691;28;20045;-74
2023/09/25 05:25:27;;;;;;;6.65;1.40;;;;;;;;;;4979201;28;20127;-74
2023/09/25 05:27:55;;;;;;;4.40;1.27;;;;;;;;;;4980016;28;20300;-74
2023/09/25 05:30:21;;;;;;;6.07;1.25;;;;;;;;;;4980060;28;20018;-74
2023/09/25 05:32:50;;;;;;;5.00;1.45;;;;;;;;;;4976944;28;20025;-74
2023/09/25 05:35:17;;;;;;;6.35;1.25;;;;;;;;;;4979507;28;20026;-75
2023/09/25 05:37:45;;;;;;;5.80;1.70;;;;;;;;;;4975930;28;20045;-74
2023/09/25 05:40:12;;;;;;;6.05;1.23;;;;;;;;;;4977103;28;20121;-75
2023/09/25 05:42:48;;;;;;;6.68;1.48;;;;;;;;;;4974523;28;20034;-75
2023/09/25 05:45:15;;;;;;;6.25;1.58;;;;;;;;;;4975987;28;20037;-74
2023/09/25 05:47:41;;;;;;;6.82;1.50;;;;;;;;;;4978085;28;20021;-74
2023/09/25 05:50:08;;;;;;;6.30;1.50;;;;;;;;;;4993863;28;20558;-74
2023/09/25 05:52:34;;;;;;;6.97;1.58;;;;;;;;;;4974152;28;20551;-74
2023/09/25 05:55:01;;;;;;;5.78;1.70;;;;;;;;;;4975770;28;20352;-74
2023/09/25 05:57:27;;;;;;;7.20;1.80;;;;;;;;;;4973885;28;20033;-74
2023/09/25 05:59:53;;;;;;;9.23;2.42;;;;;;;;;;4981761;28;20057;-75
2023/09/25 06:02:20;;;;;;;5.97;2.13;;;;;;;;;;4978602;28;20057;-75
2023/09/25 06:04:46;;;;;;;7.45;2.00;;;;;;;;;;4977329;28;20045;-74
2023/09/25 06:07:13;;;;;;;7.68;1.92;;;;;;;;;;4980336;28;20058;-75
2023/09/25 06:09:39;;;;;;;6.95;1.52;;;;;;;;;;4970726;28;20540;-74
2023/09/25 06:12:05;;;;;;;5.55;1.55;;;;;;;;;;4994401;28;20403;-74
2023/09/25 06:14:31;;;;;;;5.40;1.45;;;;;;;;;;4976173;28;20119;-74
2023/09/25 06:16:59;;;;;;;8.52;1.70;;;;;;;;;;4979328;28;20555;-75
2023/09/25 06:19:26;;;;;;;5.53;1.40;;;;;;;;;;4979051;28;20034;-75
2023/09/25 06:21:52;;;;;;;6.97;1.70;;;;;;;;;;4977731;28;20034;-74
2023/09/25 06:24:21;;;;;;;6.13;1.58;;;;;;;;;;4975701;28;20148;-75
2023/09/25 06:26:48;;;;;;;7.55;1.67;;;;;;;;;;4972496;28;20032;-74
2023/09/25 06:29:14;;;;;;;6.72;1.60;;;;;;;;;;4974262;28;20089;-75
2023/09/25 06:31:41;;;;;;;6.97;1.75;;;;;;;;;;4974694;28;20052;-75
2023/09/25 06:34:07;;;;;;;8.88;1.50;;;;;;;;;;4975306;28;20706;-74
2023/09/25 06:36:37;;;;;;;5.03;1.40;;;;;;;;;;4975366;28;20314;-75
2023/09/25 06:39:13;;;;;;;6.68;1.40;;;;;;;;;;4976390;28;20288;-74
2023/09/25 06:41:39;;;;;;;5.65;1.50;;;;;;;;;;4975394;28;20018;-74
2023/09/25 06:44:07;;;;;;;5.47;1.48;;;;;;;;;;4975779;28;20045;-75
2023/09/25 06:46:34;;;;;;;5.80;1.45;;;;;;;;;;4975546;28;20022;-74
2023/09/25 06:49:01;;;;;;;5.45;1.50;;;;;;;;;;4977808;28;20457;-74
2023/09/25 06:51:28;;;;;;;6.97;1.50;;;;;;;;;;4973152;28;20038;-74
2023/09/25 06:53:54;;;;;;;7.70;1.75;;;;;;;;;;4976881;28;20034;-74
2023/09/25 06:56:20;;;;;;;6.72;1.70;;;;;;;;;;4976048;28;20060;-74
2023/09/25 06:58:46;;;;;;;6.43;1.88;;;;;;;;;;4974240;28;20135;-74
2023/09/25 07:01:13;;;;;;;5.70;1.75;;;;;;;;;;4978447;28;20687;-74
2023/09/25 07:03:39;;;;;;;9.40;1.80;;;;;;;;;;4973300;28;20259;-74
2023/09/25 07:06:05;;;;;;;5.18;1.67;;;;;;;;;;4974421;28;20114;-74
2023/09/25 07:08:32;;;;;;;5.72;1.70;;;;;;;;;;4970784;28;20038;-75
2023/09/25 07:10:58;;;;;;;9.13;1.60;;;;;;;;;;4976920;28;20017;-75
2023/09/25 07:13:24;;;;;;;5.40;1.33;;;;;;;;;;4978470;28;20358;-75
2023/09/25 07:15:51;;;;;;;7.47;1.60;;;;;;;;;;4977210;28;20030;-75
2023/09/25 07:18:17;;;;;;;9.25;1.63;;;;;;;;;;4975182;28;20038;-75
2023/09/25 07:20:45;;;;;;;6.15;1.60;;;;;;;;;;4990862;28;20030;-75
2023/09/25 07:23:12;;;;;;;7.25;1.70;;;;;;;;;;4972140;28;20069;-75
2023/09/25 07:25:38;;;;;;;5.45;1.50;;;;;;;;;;4973398;28;20033;-75
2023/09/25 07:28:04;;;;;;;6.57;1.50;;;;;;;;;;4978622;28;20034;-75
2023/09/25 07:30:31;;;;;;;6.32;1.60;;;;;;;;;;4972960;28;20034;-75
2023/09/25 07:32:57;;;;;;;6.75;1.60;;;;;;;;;;4976459;28;20045;-75
2023/09/25 07:35:23;;;;;;;7.72;1.60;;;;;;;;;;4976520;28;20029;-75
2023/09/25 07:37:49;;;;;;;5.38;1.30;;;;;;;;;;4976267;28;20303;-76
2023/09/25 07:40:18;;;;;;;6.75;1.33;;;;;;;;;;4976371;28;20209;-76
2023/09/25 07:42:45;;;;;;;8.68;2.90;;;;;;;;;;4976809;28;20205;-75
2023/09/25 07:45:22;;;;;;;7.95;2.88;;;;;;;;;;4983285;28;20080;-75
2023/09/25 07:47:48;;;;;;;7.35;2.70;;;;;;;;;;4977696;28;20040;-74
2023/09/25 07:50:14;;;;;;;7.10;2.08;;;;;;;;;;4980909;28;20034;-75
2023/09/25 07:52:42;;;;;;;5.50;1.73;;;;;;;;;;4980216;28;20496;-75
2023/09/25 07:55:11;;;;;;;8.02;2.97;;;;;;;;;;4984196;28;20025;-75
2023/09/25 07:57:39;;;;;;;8.40;2.70;;;;;;;;;;4980112;28;20153;-75
2023/09/25 08:00:10;;;;;;;10.25;2.95;;;;;;;;;;5000551;28;20120;-75
2023/09/25 08:02:41;;;;;;;8.45;2.50;;;;;;;;;;4979495;28;20037;-75
2023/09/25 08:05:08;;;;;;;6.90;2.08;;;;;;;;;;4985300;28;20403;-75
2023/09/25 08:07:34;;;;;;;10.38;2.17;;;;;;;;;;4975881;28;20596;-75
2023/09/25 08:10:01;;;;;;;6.40;1.58;;;;;;;;;;4975952;28;20033;-75
2023/09/25 08:12:27;;;;;;;8.02;1.90;;;;;;;;;;4970631;28;20624;-74
2023/09/25 08:14:54;;;;;;;6.45;1.75;;;;;;;;;;4972403;28;20038;-75
2023/09/25 08:17:21;;;;;;;6.30;1.75;;;;;;;;;;4971932;28;20037;-75
2023/09/25 08:19:53;;;;;;;9.73;2.53;;;;;;;;;;4950946;28;20519;-74
2023/09/25 08:22:20;;;;;;;8.50;3.10;;;;;;;;;;4970237;28;20041;-75
2023/09/25 08:24:47;;;;;;;11.45;4.88;;;;;;;;;;4969534;28;20057;-75
2023/09/25 08:27:13;;;;;;;11.82;5.68;;;;;;;;;;4975235;28;20441;-74
2023/09/25 08:29:39;;;;;;;13.85;7.07;;;;;;;;;;4972515;28;20036;-75
2023/09/25 08:32:05;;;;;;;14.82;5.90;;;;;;;;;;4973819;28;20056;-74
2023/09/25 08:34:31;;;;;;;12.85;4.93;;;;;;;;;;4976698;28;20141;-76
2023/09/25 08:36:58;;;;;;;12.18;5.05;;;;;;;;;;4977664;28;20105;-75
2023/09/25 08:39:24;;;;;;;10.98;5.43;;;;;;;;;;4977338;28;20685;-76
2023/09/25 08:41:51;;;;;;;13.88;4.38;;;;;;;;;;4972516;28;20635;-76
2023/09/25 08:44:17;;;;;;;9.50;3.63;;;;;;;;;;4992396;28;20026;-75
2023/09/25 08:46:44;;;;;;;9.90;3.20;;;;;;;;;;4969732;28;20210;-75
2023/09/25 08:49:11;;;;;;;7.97;2.30;;;;;;;;;;4980894;28;20079;-75
2023/09/25 08:51:39;;;;;;;7.00;2.25;;;;;;;;;;4987237;28;20148;-75
2023/09/25 08:54:06;;;;;;;6.85;2.08;;;;;;;;;;4977088;28;20530;-76
2023/09/25 08:56:33;;;;;;;5.95;1.70;;;;;;;;;;4955464;28;20572;-75
2023/09/25 08:59:04;;;;;;;6.45;1.50;;;;;;;;;;4971743;28;20025;-75
2023/09/25 09:01:30;;;;;;;5.57;1.40;;;;;;;;;;4966941;28;20034;-75
2023/09/25 09:03:56;;;;;;;5.45;1.67;;;;;;;;;;4970057;28;20033;-76
2023/09/25 09:06:23;;;;;;;8.45;2.13;;;;;;;;;;4971866;28;20572;-72
2023/09/25 09:08:49;;;;;;;6.25;1.73;;;;;;;;;;4966624;28;20029;-72
2023/09/25 09:11:18;;;;;;;6.90;2.45;;;;;;;;;;4970347;28;20537;-71
2023/09/25 09:13:48;;;;;;;7.97;2.30;;;;;;;;;;4965511;28;20096;-71
2023/09/25 09:16:15;;;;;;;6.65;1.60;;;;;;;;;;4974974;28;20045;-71
2023/09/25 09:18:41;;;;;;;13.02;7.40;;;;;;;;;;4968879;28;20038;-71
2023/09/25 09:21:28;;;;;;;10.50;4.18;;;;;;;;;;4975386;28;20507;-72
2023/09/25 09:23:56;;;;;;;15.05;9.18;;;;;;;;;;4981901;28;20609;-71
2023/09/25 09:26:26;;;;;;;9.90;4.13;;;;;;;;;;4973777;28;20512;-72
2023/09/25 09:28:55;;;;;;;12.88;6.55;;;;;;;;;;4973137;28;20140;-71
2023/09/25 09:31:21;;;;;;;7.90;2.88;;;;;;;;;;4973075;28;20068;-71
2023/09/25 09:33:48;;;;;;;8.68;1.90;;;;;;;;;;4969010;28;20514;-71
2023/09/25 09:36:15;;;;;;;7.70;2.20;;;;;;;;;;4972391;28;20029;-71
2023/09/25 09:38:42;;;;;;;5.40;1.80;;;;;;;;;;4965232;28;20647;-71
2023/09/25 09:41:13;;;;;;;5.53;1.42;;;;;;;;;;4967410;28;20364;-70
2023/09/25 09:43:41;;;;;;;4.97;1.58;;;;;;;;;;4965030;28;20135;-73
2023/09/25 09:46:07;;;;;;;7.60;1.55;;;;;;;;;;4973934;28;20250;-71
2023/09/25 09:48:34;;;;;;;4.53;1.10;;;;;;;;;;4970722;28;20690;-71
2023/09/25 09:51:01;;;;;;;4.65;1.20;;;;;;;;;;4976196;28;20417;-70
2023/09/25 09:53:28;;;;;;;5.93;1.60;;;;;;;;;;4972795;28;20700;-71
2023/09/25 09:55:55;;;;;;;4.70;1.38;;;;;;;;;;4975765;28;20041;-71
2023/09/25 09:58:22;;;;;;;4.85;1.08;;;;;;;;;;4973092;28;20037;-71
2023/09/25 10:00:48;;;;;;;5.75;1.20;;;;;;;;;;4972876;28;20412;-71
2023/09/25 10:03:15;;;;;;;4.50;1.13;;;;;;;;;;4976185;28;20042;-71
2023/09/25 10:05:51;;;;;;;5.25;1.25;;;;;;;;;;4974135;28;20610;-71
2023/09/25 10:08:17;;;;;;;5.38;1.23;;;;;;;;;;4978178;28;20089;-71
2023/09/25 10:10:45;;;;;;;5.60;1.40;;;;;;;;;;4978577;28;20034;-71
2023/09/25 10:13:21;;;;;;;6.03;1.17;;;;;;;;;;4973836;28;20666;-71
2023/09/25 10:15:57;;;;;;;6.47;1.35;;;;;;;;;;4971690;28;21489;-70
2023/09/25 10:18:25;;;;;;;4.68;1.10;;;;;;;;;;4976426;28;20026;-71
2023/09/25 10:20:58;;;;;;;5.05;1.30;;;;;;;;;;4978234;28;20410;-71
2023/09/25 10:23:25;;;;;;;4.97;1.13;;;;;;;;;;4978217;28;20121;-71
2023/09/25 10:26:02;;;;;;;6.28;1.30;;;;;;;;;;4974482;28;20037;-70
2023/09/25 10:28:31;;;;;;;5.68;1.25;;;;;;;;;;4972571;28;20119;-71
2023/09/25 10:30:58;;;;;;;5.68;1.38;;;;;;;;;;4973696;28;20034;-71
2023/09/25 10:33:28;;;;;;;6.63;1.20;;;;;;;;;;4974038;28;20614;-71
2023/09/25 10:35:58;;;;;;;6.05;1.48;;;;;;;;;;4973266;28;20250;-71
2023/09/25 10:38:28;;;;;;;5.28;1.50;;;;;;;;;;4974574;28;20029;-71
2023/09/25 10:40:59;;;;;;;6.10;1.60;;;;;;;;;;4975380;28;20037;-71
2023/09/25 10:43:26;;;;;;;5.72;1.50;;;;;;;;;;4972656;28;20429;-72
2023/09/25 10:45:56;;;;;;;7.10;1.50;;;;;;;;;;4975783;28;20045;-72
2023/09/25 10:48:23;;;;;;;7.80;1.95;;;;;;;;;;4979864;28;20358;-71
2023/09/25 10:50:49;;;;;;;5.70;1.25;;;;;;;;;;4973065;28;20678;-73
2023/09/25 10:53:16;;;;;;;4.93;1.17;;;;;;;;;;4976187;28;20088;-72
2023/09/25 10:55:42;;;;;;;7.38;1.67;;;;;;;;;;4971990;28;20447;-71
2023/09/25 10:58:12;;;;;;;5.85;1.20;;;;;;;;;;4976006;28;20029;-72
2023/09/25 11:00:39;;;;;;;3.22;1.02;;;;;;;;;;4971838;28;20077;-71
2023/09/25 11:03:05;;;;;;;3.83;1.13;;;;;;;;;;4976522;28;20874;-71
2023/09/25 11:05:32;;;;;;;5.90;1.48;;;;;;;;;;4972934;28;20420;-73
2023/09/25 11:07:59;;;;;;;3.88;1.13;;;;;;;;;;4979272;28;20255;-72
2023/09/25 11:10:51;;;;;;;3.75;1.20;;;;;;;;;;4978248;28;20839;-71
2023/09/25 11:13:18;;;;;;;5.13;1.20;;;;;;;;;;4974428;28;20070;-71
2023/09/25 11:15:46;;;;;;;4.50;1.10;;;;;;;;;;4974700;28;20025;-72
2023/09/25 11:18:13;;;;;;;5.28;1.40;;;;;;;;;;4976939;28;20038;-72
2023/09/25 11:20:41;;;;;;;4.53;1.20;;;;;;;;;;4977339;28;20096;-74
2023/09/25 11:23:11;;;;;;;3.53;0.90;;;;;;;;;;4977579;28;20196;-72
2023/09/25 11:25:44;;;;;;;5.00;1.40;;;;;;;;;;4973261;28;20041;-71
2023/09/25 11:28:20;;;;;;;5.15;1.55;;;;;;;;;;4975791;28;20309;-72
2023/09/25 11:30:47;;;;;;;4.65;1.33;;;;;;;;;;4964979;28;24453;-72
2023/09/25 11:33:15;;;;;;;4.20;1.25;;;;;;;;;;4976222;28;20030;-72
2023/09/25 11:35:42;;;;;;;5.15;1.30;;;;;;;;;;4974815;28;20045;-72
2023/09/25 11:38:13;;;;;;;6.43;1.40;;;;;;;;;;4978842;28;20034;-72
2023/09/25 11:40:39;;;;;;;4.85;1.20;;;;;;;;;;4978234;28;20034;-71
2023/09/25 11:43:06;;;;;;;5.20;1.63;;;;;;;;;;4976508;28;21713;-73
2023/09/25 11:45:33;;;;;;;5.93;1.20;;;;;;;;;;4975783;28;20022;-71
2023/09/25 11:48:04;;;;;;;4.38;1.10;;;;;;;;;;4978752;28;20049;-71
2023/09/25 11:50:30;;;;;;;9.40;1.55;;;;;;;;;;4980432;28;20025;-73
2023/09/25 11:52:56;;;;;;;4.82;1.10;;;;;;;;;;4977937;28;20050;-66
2023/09/25 11:55:23;;;;;;;4.78;1.13;;;;;;;;;;4978121;28;20022;-68
2023/09/25 11:57:49;;;;;;;5.40;1.48;;;;;;;;;;4976425;28;20438;-68
2023/09/25 12:00:16;;;;;;;4.20;1.27;;;;;;;;;;4978838;28;20789;-70
2023/09/25 12:02:49;;;;;;;4.28;1.15;;;;;;;;;;4978491;28;20234;-69
2023/09/25 12:05:16;;;;;;;5.68;1.35;;;;;;;;;;4980183;28;20444;-69
2023/09/25 12:07:43;;;;;;;4.28;1.20;;;;;;;;;;4975062;28;20104;-69
2023/09/25 12:10:12;;;;;;;7.05;1.45;;;;;;;;;;4978991;28;20034;-68
2023/09/25 12:12:39;;;;;;;5.22;1.30;;;;;;;;;;4977760;28;20057;-69
2023/09/25 12:15:07;;;;;;;5.47;1.30;;;;;;;;;;4976356;28;20697;-70
2023/09/25 12:17:33;;;;;;;5.63;1.20;;;;;;;;;;4978422;28;20288;-69
2023/09/25 12:20:14;;;;;;;5.85;1.15;;;;;;;;;;4974874;28;20036;-68
2023/09/25 12:22:41;;;;;;;5.68;1.23;;;;;;;;;;4974494;28;20284;-68
2023/09/25 12:25:11;;;;;;;4.40;1.17;;;;;;;;;;4977595;28;20169;-68
2023/09/25 12:27:39;;;;;;;4.95;1.20;;;;;;;;;;4976164;28;20034;-68
2023/09/25 12:30:07;;;;;;;5.45;1.40;;;;;;;;;;4980700;28;21041;-68
2023/09/25 12:32:33;;;;;;;5.40;1.25;;;;;;;;;;4980173;28;20057;-68
2023/09/25 12:35:00;;;;;;;6.72;1.58;;;;;;;;;;4980655;28;20042;-69
2023/09/25 12:37:26;;;;;;;4.10;1.00;;;;;;;;;;4979964;28;20560;-68
2023/09/25 12:39:52;;;;;;;4.18;1.10;;;;;;;;;;4988821;28;20112;-68
2023/09/25 12:42:19;;;;;;;6.03;1.50;;;;;;;;;;4982565;28;20536;-68
2023/09/25 12:44:46;;;;;;;3.92;1.20;;;;;;;;;;4978550;28;20129;-68
2023/09/25 12:47:13;;;;;;;4.47;1.10;;;;;;;;;;4982537;28;20030;-68
2023/09/25 12:49:39;;;;;;;5.60;1.73;;;;;;;;;;4975520;28;20021;-68
2023/09/25 12:52:05;;;;;;;4.75;1.60;;;;;;;;;;4982714;28;20163;-68
2023/09/25 12:54:31;;;;;;;5.15;1.50;;;;;;;;;;4978048;28;20029;-69
2023/09/25 12:56:57;;;;;;;4.40;1.17;;;;;;;;;;4979965;28;20167;-68
2023/09/25 12:59:24;;;;;;;5.65;1.20;;;;;;;;;;4982209;28;20439;-68
2023/09/25 13:01:50;;;;;;;4.82;1.17;;;;;;;;;;4975413;28;20044;-70
2023/09/25 13:04:16;;;;;;;4.65;1.27;;;;;;;;;;4977854;28;20358;-68
2023/09/25 13:06:43;;;;;;;5.28;1.35;;;;;;;;;;4977994;28;20113;-69
2023/09/25 13:09:15;;;;;;;3.97;1.30;;;;;;;;;;4981581;28;20030;-68
2023/09/25 13:11:41;;;;;;;4.22;1.30;;;;;;;;;;4978708;28;20129;-70
2023/09/25 13:14:07;;;;;;;3.78;1.00;;;;;;;;;;4980909;28;20040;-71
2023/09/25 13:16:34;;;;;;;3.40;1.00;;;;;;;;;;4975545;28;20839;-68
2023/09/25 13:19:00;;;;;;;5.07;1.30;;;;;;;;;;4981417;28;20357;-69
2023/09/25 13:21:27;;;;;;;2.90;1.00;;;;;;;;;;4979933;28;20029;-70
2023/09/25 13:23:56;;;;;;;5.25;1.42;;;;;;;;;;4981697;28;20045;-69
2023/09/25 13:26:24;;;;;;;6.18;1.52;;;;;;;;;;4980511;28;20026;-69
2023/09/25 13:28:50;;;;;;;3.28;1.17;;;;;;;;;;4976619;28;20062;-70
2023/09/25 13:31:16;;;;;;;4.55;1.40;;;;;;;;;;4978108;28;20026;-69
2023/09/25 13:33:42;;;;;;;4.95;1.40;;;;;;;;;;4978741;28;20649;-69
2023/09/25 13:36:08;;;;;;;4.50;1.20;;;;;;;;;;4980736;28;20454;-69
2023/09/25 13:38:34;;;;;;;5.72;1.20;;;;;;;;;;4984879;28;20084;-69
2023/09/25 13:41:01;;;;;;;4.80;1.15;;;;;;;;;;4977833;28;20492;-70
2023/09/25 13:43:27;;;;;;;6.25;1.35;;;;;;;;;;4978069;28;20424;-70
2023/09/25 13:45:54;;;;;;;3.70;1.20;;;;;;;;;;4978154;28;20472;-69
2023/09/25 13:48:20;;;;;;;5.57;1.20;;;;;;;;;;4981788;28;20027;-69
2023/09/25 13:50:47;;;;;;;4.93;1.40;;;;;;;;;;4977293;28;20561;-69
2023/09/25 13:53:13;;;;;;;5.47;1.52;;;;;;;;;;4978887;28;20299;-69
2023/09/25 13:55:40;;;;;;;5.43;1.30;;;;;;;;;;4976582;28;20018;-69
2023/09/25 13:58:06;;;;;;;4.90;1.50;;;;;;;;;;4976781;28;20136;-70
2023/09/25 14:00:34;;;;;;;5.03;1.27;;;;;;;;;;4969436;28;20065;-69
2023/09/25 14:03:01;;;;;;;5.20;1.45;;;;;;;;;;4978876;28;20045;-69
2023/09/25 14:05:27;;;;;;;3.92;1.00;;;;;;;;;;4977685;28;20050;-69
2023/09/25 14:07:53;;;;;;;2.00;0.90;;;;;;;;;;4980104;28;20026;-69
2023/09/25 14:10:19;;;;;;;5.03;1.25;;;;;;;;;;4979015;28;20117;-68
2023/09/25 14:12:46;;;;;;;5.28;1.60;;;;;;;;;;4975628;28;20111;-68
2023/09/25 14:15:14;;;;;;;5.78;1.50;;;;;;;;;;4978657;28;21043;-68
2023/09/25 14:17:40;;;;;;;4.88;1.40;;;;;;;;;;4978570;28;20060;-68
2023/09/25 14:20:08;;;;;;;4.25;1.25;;;;;;;;;;4979094;28;20330;-69
2023/09/25 14:22:35;;;;;;;4.05;1.27;;;;;;;;;;4974985;28;20341;-69
2023/09/25 14:25:02;;;;;;;3.25;1.10;;;;;;;;;;4981233;28;20030;-69
2023/09/25 14:27:29;;;;;;;4.53;1.38;;;;;;;;;;4976238;28;20066;-68
2023/09/25 14:29:55;;;;;;;5.57;1.30;;;;;;;;;;4977451;28;20026;-68
2023/09/25 14:32:24;;;;;;;7.97;1.45;;;;;;;;;;4980335;28;20654;-68
2023/09/25 14:34:50;;;;;;;4.80;1.20;;;;;;;;;;4976724;28;20040;-68
2023/09/25 14:37:16;;;;;;;9.18;1.40;;;;;;;;;;4978146;28;20541;-68
2023/09/25 14:39:43;;;;;;;6.60;1.42;;;;;;;;;;4975362;28;20103;-69
2023/09/25 14:42:10;;;;;;;6.45;1.42;;;;;;;;;;4978642;28;20037;-76